Yengema Airport

Jump to: basic info | weather | comments

Related pages: nearby airports | nearby navaids | notams | map

Basic information (top)

Codes: WYE GFYE
Location: lon 8.610470, lat -11.045400, elev 1,300 ft / 396 m msl
Status: medium_airport
Scheduled airline service: yes
Links: Wikipedia Mobile

Weather (top)

Current conditions for Lungi International Airport 128nm (236km) W (rec'd 2015/03/30 19:00Z):

GFLL 301900Z 30007KT 9999 SCT014 27/23 Q1009

Airport forecast for Lungi International Airport 128nm (236km) W (rec'd 2015/03/30 00:51Z):

TAF TAF GFLL 302200Z 3100/0106 24008KT 9999 BKN010 
      TEMPO 3103/3109 21004KT 4000 BR BKN009 
      TEMPO 3110/3116 27010KT 9999 SCT014

Latest comments (top)

No comments yet for Yengema Airport

More... (top)

See also NOTAMs and nearby airports and navaids, or visit the Yengema Airport page at the main OurAirports website..